Terminal Aerodrome Forecast
Issued by NWS

Home | Current Version | Previous Version | Text Only | Print | Product List | Glossary On
Versions: 1 2 3 4 5 6 7 8 9 10 11 12 13 14 15 16 17 18 19 20 21 22 23 24 25 26 27 28 29 30 31 32 33 34 35 36 37
000
FTUS45 KGJT 231143
TAFEGE
TAF
KEGE 231143Z 2312/2412 VRB03KT P6SM VCSH SCT008 SCT040 BKN050
      TEMPO 2312/2316 3SM -SN BR SCT015 OVC030
     FM231800 25005KT P6SM VCSH SCT020 BKN040
     FM240400 VRB03KT P6SM VCSH SCT035 BKN050
      AMD LTD TO CLD VIS AND WIND TIL 231300=

USA.gov is the U.S. government's official web portal to all federal, state and local government web resources and services.